Time;durP1;ratioP1;P1;durP2;ratioP2;P2;SDS_P1;SDS_P2;PMS_P1;PMS_P2;Temp;Humidity;BMP_temperature;BMP_pressure;BME280_temperature;BME280_humidity;BME280_pressure;Samples;Min_cycle;Max_cycle;Signal;HPM_P1;HPM_P2
2021/09/30 00:00:47;;;;;;;2.00;1.80;;;14.60;96.40;;;;;;5047278;28;20267;-75
2021/09/30 00:03:14;;;;;;;1.90;1.50;;;14.60;96.50;;;;;;5044413;28;20238;-75
2021/09/30 00:05:43;;;;;;;2.73;1.80;;;14.60;96.60;;;;;;5047111;28;20289;-75
2021/09/30 00:08:10;;;;;;;1.67;1.53;;;14.60;96.70;;;;;;5070278;28;20603;-75
2021/09/30 00:10:39;;;;;;;1.60;1.50;;;14.50;96.70;;;;;;5109750;28;20198;-75
2021/09/30 00:13:12;;;;;;;2.37;1.90;;;14.60;96.80;;;;;;5110625;27;20199;-75
2021/09/30 00:15:53;;;;;;;2.40;1.70;;;14.60;96.90;;;;;;5112765;27;20585;-75
2021/09/30 00:32:29;;;;;;;1.47;1.37;;;14.60;96.90;;;;;;5116929;27;20226;-75
2021/09/30 00:35:29;;;;;;;1.63;1.53;;;14.60;97.10;;;;;;5049752;28;20213;-75
2021/09/30 00:41:12;;;;;;;1.50;1.40;;;14.60;97.10;;;;;;5038467;28;20209;-75
2021/09/30 00:46:27;;;;;;;2.00;1.67;;;14.70;97.30;;;;;;5048416;28;20207;-74
2021/09/30 00:51:46;;;;;;;1.83;1.30;;;14.70;97.40;;;;;;5042834;28;20212;-75
2021/09/30 01:46:11;;;;;;;4.17;3.37;;;14.70;99.50;;;;;;4911181;29;20240;-75
2021/09/30 02:20:04;;;;;;;5.83;4.67;;;14.60;99.90;;;;;;5072553;28;20218;-75
2021/09/30 02:59:06;;;;;;;4.37;3.27;;;14.20;99.90;;;;;;5106423;28;20538;-75
2021/09/30 03:01:35;;;;;;;3.97;3.27;;;14.20;99.90;;;;;;5112634;27;20221;-75
2021/09/30 03:04:03;;;;;;;6.43;4.13;;;14.20;99.90;;;;;;5110498;28;20621;-75
2021/09/30 03:06:31;;;;;;;4.20;3.73;;;14.20;99.90;;;;;;5111952;27;20681;-75
2021/09/30 03:09:03;;;;;;;6.50;4.60;;;14.20;99.90;;;;;;5116664;27;20591;-75
2021/09/30 03:11:33;;;;;;;6.00;4.90;;;14.20;99.90;;;;;;5113491;27;20549;-75
2021/09/30 03:14:00;;;;;;;6.07;4.50;;;14.20;99.90;;;;;;5113877;27;20198;-75
2021/09/30 03:16:33;;;;;;;5.60;4.37;;;14.20;99.90;;;;;;5109933;28;20739;-75
2021/09/30 03:19:19;;;;;;;5.90;4.60;;;14.20;99.90;;;;;;5109867;28;20209;-75
2021/09/30 03:24:35;;;;;;;7.87;5.73;;;14.20;99.90;;;;;;5104102;27;20339;-75
2021/09/30 03:27:03;;;;;;;6.90;5.07;;;14.20;99.90;;;;;;5109964;28;20205;-75
2021/09/30 03:29:30;;;;;;;9.47;5.37;;;14.20;99.90;;;;;;5107605;28;20196;-75
2021/09/30 03:31:59;;;;;;;6.83;4.93;;;14.20;99.90;;;;;;5104382;28;20206;-75
2021/09/30 03:34:47;;;;;;;6.23;5.03;;;14.20;99.90;;;;;;5098912;28;20212;-75
2021/09/30 03:37:15;;;;;;;6.73;5.13;;;14.10;99.90;;;;;;5109449;28;20560;-75
2021/09/30 03:39:45;;;;;;;7.10;5.37;;;14.10;99.90;;;;;;5103851;27;20212;-75
2021/09/30 03:42:12;;;;;;;7.13;4.83;;;14.00;99.90;;;;;;5111394;28;20313;-75
2021/09/30 03:44:42;;;;;;;9.03;5.63;;;14.00;99.90;;;;;;5108245;28;20216;-75
2021/09/30 03:47:14;;;;;;;7.03;5.63;;;14.00;99.90;;;;;;5110602;27;20316;-75
2021/09/30 03:49:54;;;;;;;8.00;5.07;;;14.00;99.90;;;;;;5109261;27;20764;-75
2021/09/30 03:52:29;;;;;;;8.63;6.43;;;14.00;99.90;;;;;;5107079;28;20246;-75
2021/09/30 03:55:17;;;;;;;7.97;5.80;;;14.00;99.90;;;;;;5107237;28;20220;-75
2021/09/30 03:59:05;;;;;;;8.97;6.20;;;14.00;99.90;;;;;;5111658;27;20537;-75
2021/09/30 04:00:36;;;;;;;6.60;5.17;;;14.00;99.90;;;;;;5104261;27;20663;-75
2021/09/30 04:03:04;;;;;;;5.00;4.13;;;14.00;99.90;;;;;;5088218;28;20279;-75
2021/09/30 04:05:34;;;;;;;4.93;4.40;;;14.00;99.90;;;;;;5102106;28;20206;-75
2021/09/30 04:08:02;;;;;;;5.57;4.40;;;14.10;99.90;;;;;;5086730;28;20678;-75
2021/09/30 04:10:31;;;;;;;5.57;4.73;;;14.10;99.90;;;;;;5089303;28;20198;-75
2021/09/30 04:12:58;;;;;;;6.83;5.10;;;14.20;99.90;;;;;;5088931;28;20205;-75
2021/09/30 04:15:31;;;;;;;6.57;4.80;;;14.10;99.90;;;;;;5087395;28;20263;-75
2021/09/30 04:17:59;;;;;;;5.97;4.57;;;14.20;99.90;;;;;;5084244;28;20305;-75
2021/09/30 04:20:27;;;;;;;4.80;4.07;;;14.20;99.90;;;;;;5091397;28;20697;-75
2021/09/30 04:23:03;;;;;;;5.30;4.20;;;14.20;99.90;;;;;;5088487;28;20221;-75
2021/09/30 04:25:33;;;;;;;4.60;4.20;;;14.20;99.90;;;;;;5084113;28;20611;-75
2021/09/30 04:28:01;;;;;;;6.90;4.97;;;14.20;99.90;;;;;;5088043;28;20231;-75
2021/09/30 04:30:28;;;;;;;5.03;4.17;;;14.30;99.90;;;;;;5090823;28;20632;-75
2021/09/30 04:33:19;;;;;;;8.00;5.40;;;14.30;99.90;;;;;;5092586;28;20190;-75
2021/09/30 04:35:50;;;;;;;6.67;5.13;;;14.30;99.90;;;;;;5096272;28;20198;-75
2021/09/30 04:38:17;;;;;;;7.13;5.33;;;14.30;99.90;;;;;;5097812;28;20209;-75
2021/09/30 04:40:47;;;;;;;6.97;5.53;;;14.30;99.90;;;;;;5087663;28;20199;-75
2021/09/30 04:43:16;;;;;;;8.90;6.23;;;14.30;99.90;;;;;;5088243;28;20226;-75
2021/09/30 04:45:43;;;;;;;8.70;6.17;;;14.30;99.90;;;;;;5087832;28;20203;-75
2021/09/30 04:48:17;;;;;;;8.77;6.00;;;14.20;99.90;;;;;;5088112;28;20257;-75
2021/09/30 04:50:48;;;;;;;6.93;5.30;;;14.20;99.90;;;;;;5087710;28;20280;-75
2021/09/30 04:53:15;;;;;;;6.70;5.10;;;14.20;99.90;;;;;;5086743;28;20220;-75
2021/09/30 04:55:42;;;;;;;7.37;5.40;;;14.20;99.90;;;;;;5087791;28;20201;-75
2021/09/30 04:58:11;;;;;;;8.23;5.90;;;14.30;99.90;;;;;;5091409;28;20607;-75
2021/09/30 05:00:40;;;;;;;10.17;6.70;;;14.30;99.90;;;;;;5083147;28;20207;-75
2021/09/30 05:03:25;;;;;;;9.03;6.37;;;14.20;99.90;;;;;;5101151;28;20244;-75
2021/09/30 05:05:53;;;;;;;18.23;10.13;;;14.30;99.90;;;;;;5105258;28;20206;-75
2021/09/30 05:08:20;;;;;;;12.47;7.93;;;14.20;99.90;;;;;;5111675;27;20655;-75
2021/09/30 05:10:49;;;;;;;14.90;8.50;;;14.20;99.90;;;;;;5107136;27;20296;-75
2021/09/30 05:13:22;;;;;;;13.03;8.90;;;14.30;99.90;;;;;;5111546;27;20688;-75
2021/09/30 05:15:52;;;;;;;14.03;7.87;;;14.30;99.90;;;;;;5104268;28;20551;-75
2021/09/30 05:18:55;;;;;;;12.17;8.43;;;14.30;99.90;;;;;;5045729;28;20606;-74
2021/09/30 05:21:24;;;;;;;9.07;6.87;;;14.30;99.90;;;;;;5028655;28;20300;-75
2021/09/30 05:23:52;;;;;;;11.13;7.33;;;14.30;99.90;;;;;;5029649;28;20272;-75
2021/09/30 05:26:20;;;;;;;14.60;8.47;;;14.40;99.90;;;;;;5032580;28;20624;-75
2021/09/30 05:28:49;;;;;;;15.83;9.63;;;14.30;99.90;;;;;;5023557;28;20348;-75
2021/09/30 05:31:17;;;;;;;15.33;9.37;;;14.30;99.90;;;;;;5029727;28;20684;-75
2021/09/30 05:34:02;;;;;;;11.33;7.90;;;14.30;99.90;;;;;;5033479;28;20983;-75
2021/09/30 05:36:29;;;;;;;9.20;6.50;;;14.30;99.90;;;;;;5028643;28;20231;-75
2021/09/30 05:38:57;;;;;;;10.43;6.47;;;14.30;99.90;;;;;;5023430;28;20207;-75
2021/09/30 05:41:25;;;;;;;15.13;8.50;;;14.40;99.90;;;;;;5019065;28;20203;-75
2021/09/30 05:43:56;;;;;;;11.10;6.80;;;14.40;99.90;;;;;;5024425;28;20228;-75
2021/09/30 05:46:35;;;;;;;11.40;8.20;;;14.40;99.90;;;;;;5029061;28;20212;-75
2021/09/30 05:49:04;;;;;;;12.37;7.80;;;14.40;99.90;;;;;;5029185;28;20556;-74
2021/09/30 05:51:31;;;;;;;11.27;7.60;;;14.50;99.90;;;;;;5029247;28;20707;-75
2021/09/30 05:54:22;;;;;;;17.17;9.57;;;14.50;99.90;;;;;;5054742;28;20201;-75
2021/09/30 05:57:04;;;;;;;15.20;9.23;;;14.50;99.90;;;;;;5059495;28;20209;-75
2021/09/30 05:59:32;;;;;;;15.17;9.63;;;14.50;99.90;;;;;;5047445;28;20207;-75
2021/09/30 06:10:17;;;;;;;13.33;8.43;;;14.50;99.90;;;;;;5020883;28;20217;-75
2021/09/30 06:12:46;;;;;;;15.43;9.87;;;14.50;99.90;;;;;;5008277;28;20196;-74
2021/09/30 06:15:16;;;;;;;11.97;8.17;;;14.50;99.90;;;;;;4997177;28;20231;-75
2021/09/30 06:17:46;;;;;;;11.73;7.70;;;14.50;99.90;;;;;;5007154;28;20313;-74
2021/09/30 06:20:16;;;;;;;9.77;6.87;;;14.60;99.90;;;;;;5005335;28;20228;-75
2021/09/30 06:22:43;;;;;;;12.30;7.27;;;14.70;99.90;;;;;;5002880;28;20215;-74
2021/09/30 06:25:11;;;;;;;8.93;6.33;;;14.90;99.90;;;;;;5023335;28;20223;-75
2021/09/30 06:27:39;;;;;;;10.23;7.10;;;15.10;99.90;;;;;;5007750;28;20211;-75
2021/09/30 06:30:08;;;;;;;11.93;7.47;;;15.40;99.90;;;;;;5019687;28;20217;-74
2021/09/30 06:32:39;;;;;;;10.97;7.70;;;15.50;99.90;;;;;;5039411;28;20277;-74
2021/09/30 06:35:33;;;;;;;16.20;10.00;;;15.80;99.90;;;;;;5063912;28;20220;-75
2021/09/30 06:38:00;;;;;;;11.70;7.40;;;16.30;99.90;;;;;;5045333;28;20223;-75
2021/09/30 06:40:29;;;;;;;17.27;10.63;;;17.20;99.90;;;;;;5038641;28;20305;-74
2021/09/30 06:42:57;;;;;;;14.53;9.27;;;18.10;99.90;;;;;;5046688;28;20205;-75
2021/09/30 06:46:02;;;;;;;10.63;7.13;;;19.10;99.90;;;;;;5085126;28;20218;-74
2021/09/30 06:48:49;;;;;;;9.53;5.73;;;20.30;99.90;;;;;;5088946;28;20203;-75
2021/09/30 06:51:27;;;;;;;6.85;5.20;;;21.30;99.90;;;;;;5084168;28;20235;-76
2021/09/30 06:53:54;;;;;;;7.50;5.85;;;21.80;99.90;;;;;;5087998;28;20227;-76
2021/09/30 06:56:41;;;;;;;8.32;6.65;;;22.10;99.90;;;;;;5094977;27;20199;-75
2021/09/30 06:59:34;;;;;;;10.88;7.95;;;22.00;99.90;;;;;;5102570;28;20769;-74
2021/09/30 07:02:22;;;;;;;10.68;6.00;;;21.90;99.90;;;;;;5107992;27;20353;-76
2021/09/30 07:05:29;;;;;;;7.80;5.85;;;22.20;99.90;;;;;;5061304;28;20201;-77
2021/09/30 07:08:17;;;;;;;6.20;4.93;;;22.90;98.70;;;;;;5062629;28;20545;-76
2021/09/30 07:10:46;;;;;;;6.57;5.03;;;23.40;97.40;;;;;;5061319;28;20604;-76
2021/09/30 07:13:13;;;;;;;6.05;4.85;;;23.50;96.70;;;;;;5062871;28;20338;-76
2021/09/30 07:15:40;;;;;;;4.82;4.25;;;23.40;95.40;;;;;;5059052;28;20588;-76
2021/09/30 07:18:11;;;;;;;4.50;4.10;;;23.10;95.30;;;;;;5049202;28;20285;-76
2021/09/30 07:20:40;;;;;;;4.93;4.00;;;22.90;94.70;;;;;;5041038;28;20410;-75
2021/09/30 07:23:08;;;;;;;3.80;3.50;;;22.70;94.50;;;;;;5038948;28;20438;-75
2021/09/30 07:25:35;;;;;;;3.78;3.47;;;22.60;94.50;;;;;;5059736;28;20192;-76
2021/09/30 07:28:02;;;;;;;3.78;3.45;;;22.60;93.10;;;;;;5045372;28;20208;-75
2021/09/30 07:30:31;;;;;;;3.75;3.40;;;22.50;93.10;;;;;;5043033;28;20228;-76
2021/09/30 07:32:58;;;;;;;3.63;3.33;;;22.60;92.90;;;;;;5058172;28;20333;-75
2021/09/30 07:35:26;;;;;;;3.40;3.10;;;22.70;92.30;;;;;;5029683;28;20213;-76
2021/09/30 07:37:55;;;;;;;3.28;3.00;;;22.90;92.10;;;;;;5079965;28;20199;-75
2021/09/30 07:40:23;;;;;;;3.75;3.33;;;23.10;91.60;;;;;;5076477;28;20903;-76
2021/09/30 07:42:53;;;;;;;4.85;3.53;;;23.20;91.10;;;;;;5077172;28;20575;-76
2021/09/30 07:45:20;;;;;;;3.75;3.30;;;23.70;90.80;;;;;;5083204;28;20253;-76
2021/09/30 07:47:47;;;;;;;4.15;3.70;;;24.50;89.90;;;;;;5084125;28;20284;-76
2021/09/30 07:50:14;;;;;;;4.35;3.80;;;24.90;87.10;;;;;;5088759;28;20204;-77
2021/09/30 07:52:41;;;;;;;4.25;3.53;;;24.80;85.50;;;;;;5085613;28;20192;-76
2021/09/30 07:55:11;;;;;;;4.00;3.60;;;24.40;85.10;;;;;;5089129;28;20614;-76
2021/09/30 07:57:39;;;;;;;3.67;3.35;;;24.00;85.70;;;;;;5082501;28;20216;-77
2021/09/30 08:00:07;;;;;;;3.42;3.13;;;23.80;86.20;;;;;;5083571;28;20303;-76
2021/09/30 08:02:41;;;;;;;5.32;3.70;;;23.50;85.60;;;;;;5094112;28;20242;-77
2021/09/30 08:05:09;;;;;;;3.00;2.75;;;23.40;85.60;;;;;;5102978;28;20216;-76
2021/09/30 08:07:36;;;;;;;3.38;2.97;;;23.50;85.60;;;;;;5119921;27;20192;-77
2021/09/30 08:10:05;;;;;;;4.22;2.70;;;23.60;84.70;;;;;;5106611;27;20199;-75
2021/09/30 08:12:33;;;;;;;2.78;2.58;;;23.60;85.10;;;;;;5105267;28;20192;-75
2021/09/30 08:15:00;;;;;;;3.35;3.08;;;23.40;83.70;;;;;;5105226;27;20195;-74
2021/09/30 08:17:27;;;;;;;4.78;3.47;;;23.20;83.10;;;;;;5103351;28;20192;-75
2021/09/30 08:19:54;;;;;;;2.90;2.70;;;22.80;83.10;;;;;;5103473;28;20267;-75
2021/09/30 08:22:21;;;;;;;2.70;2.50;;;22.50;83.30;;;;;;5106673;28;20614;-75
2021/09/30 08:24:48;;;;;;;3.15;2.70;;;22.30;83.50;;;;;;5108128;27;20693;-75
2021/09/30 08:27:15;;;;;;;2.92;2.45;;;22.00;83.50;;;;;;5103548;27;20207;-75
2021/09/30 08:29:44;;;;;;;2.33;2.20;;;21.90;83.60;;;;;;5102579;28;20203;-75
2021/09/30 08:32:11;;;;;;;2.58;2.38;;;21.90;83.10;;;;;;5106433;27;20204;-74
2021/09/30 08:34:38;;;;;;;2.20;1.90;;;21.90;82.30;;;;;;5106507;28;20219;-74
2021/09/30 08:37:05;;;;;;;2.20;2.00;;;21.90;81.60;;;;;;5096463;28;20555;-75
2021/09/30 08:39:32;;;;;;;1.40;1.30;;;21.80;81.50;;;;;;5102758;27;20311;-74
2021/09/30 08:41:59;;;;;;;3.45;1.70;;;21.70;81.60;;;;;;5096007;28;20199;-74
2021/09/30 08:44:26;;;;;;;2.67;1.40;;;21.70;81.20;;;;;;5097392;27;20230;-74
2021/09/30 08:46:55;;;;;;;1.63;1.45;;;22.00;81.20;;;;;;5096372;28;20209;-74
2021/09/30 08:49:24;;;;;;;1.00;1.00;;;23.20;80.40;;;;;;5103192;27;20192;-74
2021/09/30 08:51:51;;;;;;;1.20;1.13;;;25.00;77.30;;;;;;5100080;27;20196;-74
2021/09/30 08:54:18;;;;;;;1.50;1.27;;;26.70;71.90;;;;;;5100415;28;20261;-75
2021/09/30 08:56:45;;;;;;;1.95;1.75;;;27.70;67.40;;;;;;5105184;27;20430;-76
2021/09/30 08:59:14;;;;;;;1.70;1.60;;;28.50;62.70;;;;;;5103107;28;20282;-75
2021/09/30 09:01:44;;;;;;;1.50;1.40;;;28.80;58.90;;;;;;5102247;28;20521;-75
2021/09/30 09:04:21;;;;;;;1.55;1.20;;;28.70;58.10;;;;;;5099371;28;20580;-75
2021/09/30 09:06:49;;;;;;;1.10;1.10;;;28.20;58.00;;;;;;5097405;28;20319;-76
2021/09/30 09:09:23;;;;;;;1.40;1.15;;;27.70;57.40;;;;;;5106807;27;20296;-75
2021/09/30 09:11:55;;;;;;;1.10;1.10;;;27.20;57.50;;;;;;5102659;28;20571;-76
2021/09/30 09:14:23;;;;;;;1.33;1.30;;;26.80;58.40;;;;;;5101870;27;20663;-76
2021/09/30 09:17:01;;;;;;;1.40;1.30;;;26.60;58.20;;;;;;5105806;27;20546;-76
2021/09/30 09:19:36;;;;;;;1.38;1.38;;;27.10;58.40;;;;;;5107704;27;20314;-75
2021/09/30 09:22:13;;;;;;;1.20;1.10;;;27.50;57.60;;;;;;5101908;28;20214;-76
2021/09/30 09:25:05;;;;;;;1.35;1.25;;;27.70;56.50;;;;;;5102521;27;20215;-75
2021/09/30 09:27:46;;;;;;;0.90;0.90;;;27.70;55.90;;;;;;5105904;27;20949;-75
2021/09/30 09:30:35;;;;;;;1.23;1.00;;;27.80;55.30;;;;;;5113355;27;20527;-76
2021/09/30 09:33:14;;;;;;;0.80;0.80;;;27.60;53.30;;;;;;5101867;27;20200;-76
2021/09/30 09:36:03;;;;;;;0.60;0.60;;;27.00;53.40;;;;;;5098987;28;20215;-76
2021/09/30 09:38:44;;;;;;;0.85;0.85;;;26.30;54.30;;;;;;5108949;27;20558;-75
2021/09/30 09:41:14;;;;;;;0.73;0.73;;;25.80;54.90;;;;;;5097155;28;20663;-75
2021/09/30 09:43:43;;;;;;;1.25;0.93;;;25.30;55.70;;;;;;5102730;28;20234;-76
2021/09/30 09:46:11;;;;;;;0.80;0.80;;;24.80;55.90;;;;;;5102310;28;20490;-75
2021/09/30 09:48:39;;;;;;;4.32;0.80;;;24.50;56.30;;;;;;5114343;27;20674;-76
2021/09/30 09:51:10;;;;;;;1.25;0.80;;;24.10;56.80;;;;;;5107652;27;20226;-75
2021/09/30 09:53:38;;;;;;;0.90;0.90;;;23.70;57.20;;;;;;5101294;28;20203;-75
2021/09/30 09:56:11;;;;;;;1.35;1.00;;;23.50;57.40;;;;;;5099672;28;20268;-78
2021/09/30 09:58:50;;;;;;;0.90;0.90;;;23.30;57.50;;;;;;5102786;27;20199;-75
2021/09/30 10:01:22;;;;;;;0.93;0.90;;;23.00;57.50;;;;;;5101049;28;20290;-77
2021/09/30 10:03:55;;;;;;;0.73;0.73;;;22.70;57.80;;;;;;5097604;28;20325;-76
2021/09/30 10:06:24;;;;;;;0.90;0.70;;;22.40;58.10;;;;;;5097728;28;20208;-77
2021/09/30 10:08:51;;;;;;;1.50;1.20;;;22.10;58.40;;;;;;5099338;28;20219;-77
2021/09/30 10:11:18;;;;;;;1.00;1.00;;;22.00;58.90;;;;;;5097632;28;20306;-76
2021/09/30 10:13:45;;;;;;;0.60;0.60;;;21.90;59.10;;;;;;5099083;28;20196;-76
2021/09/30 10:16:16;;;;;;;0.82;0.82;;;22.10;59.40;;;;;;5098681;28;20194;-76
2021/09/30 10:18:54;;;;;;;1.02;0.85;;;22.60;59.40;;;;;;5099255;28;20356;-77
2021/09/30 10:21:23;;;;;;;1.00;1.00;;;23.50;59.10;;;;;;5100088;28;20257;-77
2021/09/30 10:23:53;;;;;;;1.10;1.00;;;24.60;58.30;;;;;;5100438;28;20192;-76
2021/09/30 10:26:25;;;;;;;1.00;1.00;;;25.60;57.10;;;;;;5103755;28;20651;-78
2021/09/30 10:28:52;;;;;;;0.90;0.90;;;26.50;56.30;;;;;;5102385;28;20286;-76
2021/09/30 10:31:25;;;;;;;0.80;0.80;;;27.30;55.20;;;;;;5099305;28;20216;-76
2021/09/30 10:33:54;;;;;;;0.90;0.90;;;28.00;54.00;;;;;;5101272;28;20291;-76
2021/09/30 10:36:38;;;;;;;1.67;1.02;;;28.10;52.80;;;;;;5096607;28;20200;-76
2021/09/30 10:39:21;;;;;;;1.73;1.20;;;28.10;52.10;;;;;;5102766;28;20489;-76
2021/09/30 10:41:49;;;;;;;1.30;1.20;;;28.40;52.10;;;;;;5098936;28;20207;-77
2021/09/30 10:44:18;;;;;;;0.93;0.80;;;28.80;51.10;;;;;;5099299;28;20199;-76
2021/09/30 10:46:47;;;;;;;1.40;1.10;;;28.80;50.60;;;;;;5102809;28;20207;-76
2021/09/30 10:49:40;;;;;;;1.08;1.00;;;28.60;50.00;;;;;;5104126;28;20418;-76
2021/09/30 10:52:23;;;;;;;0.80;0.80;;;28.80;49.80;;;;;;5101574;28;20671;-77
2021/09/30 10:55:01;;;;;;;1.77;0.82;;;29.10;49.10;;;;;;5099423;28;20196;-77
2021/09/30 10:57:39;;;;;;;0.70;0.70;;;29.70;48.70;;;;;;5105086;27;20218;-77
2021/09/30 11:00:09;;;;;;;0.90;0.90;;;30.00;47.60;;;;;;5102638;28;20643;-75
2021/09/30 11:03:12;;;;;;;1.27;1.25;;;30.40;46.80;;;;;;5096554;28;20234;-75
2021/09/30 11:05:41;;;;;;;1.20;1.10;;;30.50;45.10;;;;;;5097325;28;20663;-76
2021/09/30 11:08:27;;;;;;;1.20;1.10;;;30.20;44.80;;;;;;5102543;28;20189;-76
2021/09/30 11:11:12;;;;;;;1.30;1.20;;;30.10;44.90;;;;;;5103599;27;20671;-76
2021/09/30 11:13:41;;;;;;;1.50;1.05;;;30.00;44.30;;;;;;5108666;27;20271;-77
2021/09/30 11:16:10;;;;;;;1.00;1.00;;;30.10;44.40;;;;;;5100057;27;20196;-76
2021/09/30 11:18:43;;;;;;;0.93;0.93;;;30.20;44.10;;;;;;5102654;28;20206;-76
2021/09/30 11:21:47;;;;;;;5.63;1.20;;;30.10;43.70;;;;;;5109889;27;20196;-76
2021/09/30 11:24:27;;;;;;;1.70;1.10;;;29.70;42.90;;;;;;5019833;28;20629;-76
2021/09/30 11:27:22;;;;;;;1.10;1.00;;;29.00;43.10;;;;;;5017316;28;20224;-76
2021/09/30 11:29:50;;;;;;;1.17;0.90;;;28.50;43.80;;;;;;5019154;28;20194;-76
2021/09/30 11:32:26;;;;;;;1.13;0.80;;;28.00;44.10;;;;;;5041728;28;20198;-77
2021/09/30 11:34:55;;;;;;;0.90;0.90;;;27.60;44.60;;;;;;5023799;28;20666;-76
2021/09/30 11:37:26;;;;;;;0.80;0.80;;;27.30;45.10;;;;;;5016347;28;20559;-77
2021/09/30 11:39:57;;;;;;;1.15;0.80;;;27.30;45.50;;;;;;5031035;28;20214;-75
2021/09/30 11:42:33;;;;;;;1.10;1.10;;;27.10;45.60;;;;;;5037691;28;20205;-76
2021/09/30 11:45:10;;;;;;;1.60;1.37;;;27.00;45.80;;;;;;5038329;28;20875;-76
2021/09/30 11:47:38;;;;;;;2.05;1.65;;;26.90;45.60;;;;;;5015030;28;20226;-77
2021/09/30 11:50:07;;;;;;;1.65;1.55;;;26.70;45.70;;;;;;5029316;28;20205;-76
2021/09/30 11:52:35;;;;;;;1.25;1.08;;;26.60;45.80;;;;;;5019789;28;20202;-77
2021/09/30 11:55:18;;;;;;;1.98;1.88;;;26.40;45.90;;;;;;5015988;28;20269;-77
2021/09/30 11:58:04;;;;;;;2.92;2.72;;;26.10;46.10;;;;;;5027098;28;20209;-77
2021/09/30 12:00:33;;;;;;;1.60;1.50;;;25.70;46.30;;;;;;5080764;27;20628;-76
2021/09/30 12:03:03;;;;;;;1.40;1.30;;;25.40;47.00;;;;;;5104103;28;20650;-75
2021/09/30 12:05:33;;;;;;;1.10;1.00;;;25.00;46.50;;;;;;5104333;28;20215;-76
2021/09/30 12:08:03;;;;;;;0.77;0.77;;;24.70;46.70;;;;;;5101579;27;20222;-76
2021/09/30 12:10:33;;;;;;;2.33;0.98;;;24.40;46.90;;;;;;5105567;27;20207;-75
2021/09/30 12:13:11;;;;;;;1.92;1.00;;;24.10;47.00;;;;;;5102716;27;21024;-76
2021/09/30 12:15:39;;;;;;;0.80;0.73;;;23.80;47.40;;;;;;5104382;28;20718;-77
2021/09/30 12:18:20;;;;;;;0.90;0.90;;;23.50;47.80;;;;;;5104417;27;20868;-76
2021/09/30 12:20:52;;;;;;;0.95;0.93;;;23.40;48.50;;;;;;5098685;27;20212;-78
2021/09/30 12:23:19;;;;;;;2.05;0.73;;;23.20;48.80;;;;;;5102294;28;20207;-77
2021/09/30 12:25:48;;;;;;;0.90;0.90;;;23.00;49.00;;;;;;5098406;28;20212;-76
2021/09/30 12:28:16;;;;;;;1.25;0.75;;;22.80;49.20;;;;;;5108740;27;20656;-76
2021/09/30 12:30:43;;;;;;;1.25;0.60;;;22.70;49.50;;;;;;5103121;27;20295;-77
2021/09/30 12:33:11;;;;;;;0.60;0.60;;;22.50;49.50;;;;;;5099091;28;20680;-76
2021/09/30 12:35:40;;;;;;;1.42;0.65;;;22.40;49.70;;;;;;5102703;27;20208;-76
2021/09/30 12:38:12;;;;;;;1.00;0.70;;;22.20;49.70;;;;;;5104023;28;20192;-77
2021/09/30 12:40:41;;;;;;;1.00;0.70;;;22.10;50.00;;;;;;5098736;27;20207;-76
2021/09/30 12:43:11;;;;;;;0.60;0.60;;;22.00;50.40;;;;;;5105237;28;20207;-76
2021/09/30 12:45:41;;;;;;;0.82;0.75;;;21.80;50.50;;;;;;5102292;27;20434;-77
2021/09/30 12:48:09;;;;;;;1.20;0.60;;;21.70;51.00;;;;;;5102810;28;20719;-77
2021/09/30 12:50:40;;;;;;;3.90;0.70;;;21.60;50.60;;;;;;5105292;27;20559;-77
2021/09/30 12:53:08;;;;;;;0.70;0.70;;;21.50;50.60;;;;;;5104354;27;20204;-77
2021/09/30 12:55:36;;;;;;;0.88;0.80;;;21.50;50.90;;;;;;5101583;28;20298;-76
2021/09/30 12:58:04;;;;;;;1.50;0.80;;;21.50;51.00;;;;;;5104114;27;20827;-75
2021/09/30 13:00:38;;;;;;;0.60;0.60;;;21.50;51.20;;;;;;5101477;27;20195;-75
2021/09/30 13:03:18;;;;;;;0.98;0.88;;;21.40;51.30;;;;;;5105006;28;20656;-74
2021/09/30 13:05:50;;;;;;;1.35;1.25;;;21.40;51.40;;;;;;5104031;27;20211;-75
2021/09/30 13:08:38;;;;;;;1.17;1.02;;;21.40;51.60;;;;;;5100260;27;20196;-76
2021/09/30 13:11:36;;;;;;;1.45;0.98;;;21.40;51.60;;;;;;5100708;28;20257;-76
2021/09/30 13:14:24;;;;;;;1.70;1.20;;;21.30;51.80;;;;;;5019495;28;20646;-76
2021/09/30 13:16:55;;;;;;;1.58;1.00;;;21.20;51.80;;;;;;5020446;28;20206;-75
2021/09/30 13:19:41;;;;;;;1.45;0.80;;;21.10;52.00;;;;;;5001682;28;20226;-75
2021/09/30 13:22:14;;;;;;;0.65;0.65;;;21.00;52.10;;;;;;5006176;28;20531;-75
2021/09/30 13:24:43;;;;;;;0.50;0.50;;;20.80;52.00;;;;;;5000715;28;20947;-75
2021/09/30 13:27:12;;;;;;;0.60;0.60;;;20.70;52.20;;;;;;5021098;28;20218;-76
2021/09/30 13:29:39;;;;;;;1.00;0.68;;;20.60;52.80;;;;;;5003418;28;20204;-76
2021/09/30 13:32:08;;;;;;;1.20;1.10;;;20.50;52.20;;;;;;5024955;28;20202;-76
2021/09/30 13:34:35;;;;;;;3.20;1.08;;;20.30;52.20;;;;;;5025934;28;20202;-75
2021/09/30 13:37:03;;;;;;;1.48;1.30;;;20.30;52.40;;;;;;5013018;28;20638;-75
2021/09/30 13:39:30;;;;;;;1.40;0.95;;;20.20;52.50;;;;;;5003989;28;20208;-75
2021/09/30 13:41:57;;;;;;;1.20;1.10;;;20.20;52.50;;;;;;5019438;28;20667;-77
2021/09/30 13:44:24;;;;;;;1.65;1.20;;;20.20;52.70;;;;;;5005302;28;20244;-77
2021/09/30 13:46:51;;;;;;;1.23;1.13;;;20.20;52.80;;;;;;5005276;28;20219;-75
2021/09/30 13:49:19;;;;;;;1.45;1.00;;;20.30;53.00;;;;;;5095425;28;20200;-75
2021/09/30 13:51:46;;;;;;;1.15;0.90;;;20.30;53.00;;;;;;5105996;27;20191;-76
2021/09/30 13:54:13;;;;;;;2.50;1.00;;;20.20;53.00;;;;;;5104243;28;20571;-76
2021/09/30 13:56:41;;;;;;;0.80;0.80;;;20.30;53.30;;;;;;5098985;28;20272;-75
2021/09/30 13:59:08;;;;;;;0.90;0.90;;;20.30;53.50;;;;;;5096975;28;20568;-76
2021/09/30 14:01:35;;;;;;;0.50;0.50;;;20.20;53.20;;;;;;5103463;27;20290;-76
2021/09/30 14:04:02;;;;;;;0.75;0.75;;;20.10;53.20;;;;;;5105511;28;20467;-76
2021/09/30 14:06:30;;;;;;;0.60;0.60;;;20.00;53.30;;;;;;5102066;28;20223;-75
2021/09/30 14:08:58;;;;;;;0.80;0.70;;;19.90;53.40;;;;;;5102857;28;20686;-76
2021/09/30 14:11:26;;;;;;;2.17;1.30;;;19.80;53.70;;;;;;5105576;28;20204;-75
2021/09/30 14:13:55;;;;;;;1.10;1.10;;;19.70;53.80;;;;;;5105296;28;20192;-76
2021/09/30 14:16:22;;;;;;;1.30;1.20;;;19.60;53.90;;;;;;5101725;28;20215;-75
2021/09/30 14:18:50;;;;;;;0.73;0.73;;;19.50;54.10;;;;;;5103032;28;20196;-75
2021/09/30 14:21:18;;;;;;;1.08;0.80;;;19.40;54.80;;;;;;5110608;27;20195;-76
2021/09/30 14:23:47;;;;;;;1.10;1.00;;;19.30;54.30;;;;;;5109743;27;20231;-75
2021/09/30 14:26:14;;;;;;;0.50;0.50;;;19.30;54.40;;;;;;5102039;28;20247;-75
2021/09/30 14:28:41;;;;;;;2.00;0.80;;;19.20;54.40;;;;;;5099050;28;20200;-76
2021/09/30 14:31:08;;;;;;;0.90;0.70;;;19.20;54.60;;;;;;5104360;28;20195;-75
2021/09/30 14:33:36;;;;;;;0.90;0.88;;;19.20;54.60;;;;;;5111389;27;20199;-76
2021/09/30 14:36:04;;;;;;;0.85;0.80;;;19.10;54.50;;;;;;5099665;28;20714;-75
2021/09/30 14:38:32;;;;;;;1.02;0.90;;;19.10;54.50;;;;;;5102749;28;20215;-75
2021/09/30 14:41:01;;;;;;;0.98;0.88;;;19.00;54.60;;;;;;5097668;28;20202;-76
2021/09/30 14:43:42;;;;;;;0.77;0.70;;;19.00;54.70;;;;;;5101742;28;20660;-76
2021/09/30 14:46:10;;;;;;;1.10;1.00;;;19.00;54.90;;;;;;5105678;27;20223;-75
2021/09/30 14:48:38;;;;;;;1.10;0.90;;;18.90;54.90;;;;;;5105368;27;20192;-76
2021/09/30 14:51:06;;;;;;;0.75;0.75;;;18.80;55.10;;;;;;5110502;27;20194;-76
2021/09/30 14:53:34;;;;;;;3.30;0.80;;;18.80;55.30;;;;;;5109068;27;20196;-75
2021/09/30 14:56:02;;;;;;;0.93;0.68;;;18.80;55.60;;;;;;5105419;27;20855;-74
2021/09/30 14:58:29;;;;;;;1.00;0.90;;;18.70;55.70;;;;;;5105975;28;20202;-74
2021/09/30 15:00:56;;;;;;;0.85;0.80;;;18.60;55.90;;;;;;5107517;27;20283;-74
2021/09/30 15:03:24;;;;;;;1.45;0.70;;;18.50;56.20;;;;;;5106255;27;20256;-68
2021/09/30 15:05:51;;;;;;;0.70;0.70;;;18.50;56.50;;;;;;5112673;27;20219;-73
2021/09/30 15:08:18;;;;;;;0.80;0.80;;;18.60;56.70;;;;;;5108955;27;20206;-72
2021/09/30 15:10:45;;;;;;;1.30;0.90;;;18.80;56.40;;;;;;5105094;28;20231;-72
2021/09/30 15:13:13;;;;;;;1.42;0.80;;;19.00;56.40;;;;;;5106303;28;20204;-72
2021/09/30 15:15:40;;;;;;;0.68;0.68;;;19.00;56.20;;;;;;5104714;28;20500;-71
2021/09/30 15:18:09;;;;;;;0.70;0.60;;;18.90;56.30;;;;;;5108966;27;20630;-72
2021/09/30 15:23:22;;;;;;;0.50;0.50;;;18.70;56.80;;;;;;5106423;28;20199;-72
2021/09/30 15:25:49;;;;;;;0.65;0.63;;;18.60;57.10;;;;;;5104097;28;20257;-72
2021/09/30 15:28:20;;;;;;;0.63;0.63;;;18.60;57.20;;;;;;5106436;27;20732;-72
2021/09/30 15:30:48;;;;;;;0.60;0.60;;;18.50;57.40;;;;;;5111256;27;20686;-72
2021/09/30 15:33:15;;;;;;;0.70;0.70;;;18.40;57.50;;;;;;5108132;27;20208;-73
2021/09/30 15:35:43;;;;;;;0.60;0.60;;;18.40;58.40;;;;;;5109412;27;20244;-72
2021/09/30 15:38:11;;;;;;;0.65;0.65;;;18.30;58.00;;;;;;5106757;27;20218;-72
2021/09/30 15:40:38;;;;;;;0.52;0.52;;;18.20;58.30;;;;;;5104166;28;20186;-72
2021/09/30 15:43:05;;;;;;;0.60;0.60;;;18.10;58.40;;;;;;5106742;28;20196;-72
2021/09/30 15:45:34;;;;;;;0.70;0.70;;;18.10;58.60;;;;;;5105901;27;20194;-72